createdAt,value
2023-02-16T00:00:16.966Z,102374.66
2023-02-16T00:02:43.291Z,102377.34
2023-02-16T00:05:28.448Z,102373.81
2023-02-16T00:07:56.342Z,102369.59
2023-02-16T00:10:23.258Z,102370.75
2023-02-16T00:13:08.737Z,102365.84
2023-02-16T00:15:35.433Z,102368.31
2023-02-16T00:18:04.456Z,102367.47
2023-02-16T00:20:30.855Z,102367.63
2023-02-16T00:22:57.665Z,102369.78
2023-02-16T00:25:24.799Z,102367.09
2023-02-16T00:27:51.468Z,102364.09
2023-02-16T00:30:21.944Z,102364.41
2023-02-16T00:32:50.288Z,102372.75
2023-02-16T00:35:19.361Z,102364.69
2023-02-16T00:37:49.220Z,102370.63
2023-02-16T00:40:16.798Z,102366.41
2023-02-16T00:42:47.056Z,102359.34
2023-02-16T00:45:22.388Z,102359.81
2023-02-16T00:47:51.086Z,102362.66
2023-02-16T00:50:31.132Z,102358.28
2023-02-16T00:53:02.468Z,102349.72
2023-02-16T00:55:35.249Z,102348.88
2023-02-16T00:58:11.784Z,102354.53
2023-02-16T01:00:43.028Z,102359.91
2023-02-16T01:03:19.361Z,102357.91
2023-02-16T01:05:45.807Z,102359.75
2023-02-16T01:08:34.599Z,102353.22
2023-02-16T01:11:09.914Z,102343.81
2023-02-16T01:13:48.317Z,102340.28
2023-02-16T01:16:18.583Z,102341.25
2023-02-16T01:18:45.514Z,102344.25
2023-02-16T01:21:12.114Z,102348.19
2023-02-16T01:23:39.314Z,102340.41
2023-02-16T01:26:11.647Z,102346.78
2023-02-16T01:28:38.166Z,102338.75
2023-02-16T01:31:06.251Z,102344.78
2023-02-16T01:33:32.893Z,102336.38
2023-02-16T01:35:59.311Z,102328.47
2023-02-16T01:38:28.284Z,102335.53
2023-02-16T01:41:22.527Z,102334.84
2023-02-16T01:43:56.375Z,102323.28
2023-02-16T01:46:33.150Z,102326.97
2023-02-16T01:49:00.002Z,102319.22
2023-02-16T01:51:30.744Z,102320.91
2023-02-16T01:53:57.032Z,102320.59
2023-02-16T01:56:35.598Z,102317.22
2023-02-16T01:59:10.085Z,102316.91
2023-02-16T02:01:41.508Z,102312.56
2023-02-16T02:04:31.461Z,102310.72
2023-02-16T02:06:57.861Z,102317.75
2023-02-16T02:09:35.425Z,102313.25
2023-02-16T02:12:16.879Z,102304.19
2023-02-16T02:14:43.529Z,102299.69
2023-02-16T02:17:17.928Z,102304.19
2023-02-16T02:19:59.410Z,102296.53
2023-02-16T02:22:50.770Z,102298.25
2023-02-16T02:25:38.406Z,102301.59
2023-02-16T02:28:27.508Z,102299.13
2023-02-16T02:31:20.171Z,102291.59
2023-02-16T02:34:14.793Z,102291.31
2023-02-16T02:37:03.782Z,102290.16
2023-02-16T02:39:46.993Z,102280.13
2023-02-16T02:42:31.638Z,102283.31
2023-02-16T02:45:04.819Z,102281.31
2023-02-16T02:47:49.974Z,102272.78
2023-02-16T02:50:41.032Z,102280.84
2023-02-16T02:53:15.147Z,102269.97
2023-02-16T02:56:06.997Z,102279.72
2023-02-16T02:58:55.769Z,102270.81
2023-02-16T03:01:24.364Z,102263.78
2023-02-16T03:03:56.784Z,102271.50
2023-02-16T03:06:30.108Z,102264.28
2023-02-16T03:09:08.282Z,102265.13
2023-02-16T03:11:53.519Z,102254.41
2023-02-16T03:14:40.082Z,102252.19
2023-02-16T03:17:29.210Z,102248.66
2023-02-16T03:20:16.485Z,102255.84
2023-02-16T03:23:01.543Z,102254.19
2023-02-16T03:25:51.565Z,102239.25
2023-02-16T03:28:40.627Z,102243.09
2023-02-16T03:31:10.340Z,102239.56
2023-02-16T03:33:36.857Z,102237.56
2023-02-16T03:36:04.713Z,102237.25
2023-02-16T03:38:31.674Z,102247.81
2023-02-16T03:40:58.498Z,102250.38
2023-02-16T03:43:26.423Z,102249.38
2023-02-16T03:45:52.954Z,102242.84
2023-02-16T03:48:20.064Z,102246.88
2023-02-16T03:50:46.729Z,102238.50
2023-02-16T03:53:13.193Z,102246.56
2023-02-16T03:55:43.063Z,102250.91
2023-02-16T03:58:11.709Z,102251.59
2023-02-16T04:00:39.053Z,102254.66
2023-02-16T04:03:06.558Z,102263.41
2023-02-16T04:05:33.341Z,102252.81
2023-02-16T04:07:59.862Z,102249.13
2023-02-16T04:10:26.363Z,102265.75
2023-02-16T04:12:52.897Z,102261.22
2023-02-16T04:15:24.457Z,102262.75
2023-02-16T04:17:50.868Z,102262.75
2023-02-16T04:20:20.309Z,102261.75
2023-02-16T04:22:47.337Z,102265.94
2023-02-16T04:25:15.428Z,102263.13
2023-02-16T04:27:42.734Z,102253.06
2023-02-16T04:30:21.757Z,102261.13
2023-02-16T04:32:48.611Z,102263.66
2023-02-16T04:35:16.237Z,102253.75
2023-02-16T04:37:42.708Z,102246.38
2023-02-16T04:40:13.589Z,102254.25
2023-02-16T04:42:41.042Z,102259.63
2023-02-16T04:45:08.244Z,102255.09
2023-02-16T04:47:34.761Z,102264.16
2023-02-16T04:50:01.291Z,102269.38
2023-02-16T04:52:27.744Z,102253.41
2023-02-16T04:54:54.190Z,102259.31
2023-02-16T04:57:22.451Z,102255.78
2023-02-16T04:59:48.887Z,102242.34
2023-02-16T05:02:15.318Z,102247.72
2023-02-16T05:04:42.265Z,102244.19
2023-02-16T05:07:08.786Z,102245.19
2023-02-16T05:09:35.205Z,102250.56
2023-02-16T05:12:20.121Z,102243.34
2023-02-16T05:14:46.552Z,102247.03
2023-02-16T05:17:16.455Z,102236.31
2023-02-16T05:19:45.358Z,102238.00
2023-02-16T05:22:12.757Z,102236.16
2023-02-16T05:24:39.949Z,102219.88
2023-02-16T05:27:08.849Z,102227.94
2023-02-16T05:29:35.407Z,102218.03
2023-02-16T05:32:04.596Z,102220.56
2023-02-16T05:34:31.278Z,102218.88
2023-02-16T05:36:57.754Z,102216.88
2023-02-16T05:39:24.161Z,102219.53
2023-02-16T05:41:50.660Z,102208.81
2023-02-16T05:44:17.552Z,102223.94
2023-02-16T05:46:44.551Z,102224.78
2023-02-16T05:49:10.993Z,102233.69
2023-02-16T05:51:37.999Z,102229.31
2023-02-16T05:54:05.310Z,102230.16
2023-02-16T05:56:32.036Z,102237.19
2023-02-16T05:59:00.209Z,102229.31
2023-02-16T06:01:28.721Z,102216.88
2023-02-16T06:03:55.531Z,102214.19
2023-02-16T06:06:22.002Z,102224.91
2023-02-16T06:08:48.599Z,102238.50
2023-02-16T06:11:33.858Z,102230.28
2023-02-16T06:14:01.621Z,102222.22
2023-02-16T06:16:30.405Z,102219.72
2023-02-16T06:18:57.421Z,102226.75
2023-02-16T06:21:25.130Z,102234.81
2023-02-16T06:23:52.203Z,102238.34
2023-02-16T06:26:18.992Z,102240.06
2023-02-16T06:28:45.362Z,102242.03
2023-02-16T06:31:12.325Z,102238.34
2023-02-16T06:33:38.749Z,102235.66
2023-02-16T06:36:06.605Z,102233.97
2023-02-16T06:38:33.053Z,102248.09
2023-02-16T06:40:59.506Z,102248.94
2023-02-16T06:43:25.970Z,102243.72
2023-02-16T06:45:53.105Z,102244.53
2023-02-16T06:48:19.800Z,102240.06
2023-02-16T06:50:46.429Z,102235.53
2023-02-16T06:53:12.861Z,102244.25
2023-02-16T06:55:39.238Z,102246.78
2023-02-16T06:58:07.237Z,102236.72
2023-02-16T07:00:34.986Z,102235.69
2023-02-16T07:03:02.193Z,102233.00
2023-02-16T07:05:28.776Z,102238.22
2023-02-16T07:07:55.626Z,102238.06
2023-02-16T07:10:22.012Z,102237.06
2023-02-16T07:12:49.002Z,102239.75
2023-02-16T07:15:15.401Z,102241.25
2023-02-16T07:17:41.794Z,102248.16
2023-02-16T07:20:09.614Z,102255.91
2023-02-16T07:22:36.055Z,102255.56
2023-02-16T07:25:02.589Z,102253.38
2023-02-16T07:27:28.994Z,102257.59
2023-02-16T07:29:55.596Z,102255.44
2023-02-16T07:32:22.064Z,102259.66
2023-02-16T07:34:48.556Z,102258.31
2023-02-16T07:37:14.990Z,102259.16
2023-02-16T07:39:41.477Z,102262.50
2023-02-16T07:42:07.981Z,102260.31
2023-02-16T07:44:34.361Z,102267.06
2023-02-16T07:47:00.852Z,102272.28
2023-02-16T07:49:27.239Z,102282.88
2023-02-16T07:51:53.717Z,102273.78
2023-02-16T07:54:20.210Z,102276.31
2023-02-16T07:56:46.967Z,102273.47
2023-02-16T07:59:15.449Z,102272.44
2023-02-16T08:01:42.490Z,102279.34
2023-02-16T08:04:08.977Z,102281.03
2023-02-16T08:06:35.615Z,102285.22
2023-02-16T08:09:02.032Z,102286.09
2023-02-16T08:11:28.506Z,102283.06
2023-02-16T08:13:54.990Z,102292.81
2023-02-16T08:16:26.538Z,102291.66
2023-02-16T08:18:56.153Z,102295.88
2023-02-16T08:21:25.643Z,102289.66
2023-02-16T08:23:58.300Z,102295.53
2023-02-16T08:26:28.867Z,102297.03
2023-02-16T08:28:56.549Z,102296.75
2023-02-16T08:31:26.367Z,102302.13
2023-02-16T08:33:54.919Z,102290.19
2023-02-16T08:36:26.371Z,102288.34
2023-02-16T08:38:53.540Z,102304.13
2023-02-16T08:41:22.590Z,102296.75
2023-02-16T08:43:50.174Z,102301.78
2023-02-16T08:46:17.931Z,102314.22
2023-02-16T08:48:45.256Z,102306.84
2023-02-16T08:51:17.501Z,102304.84
2023-02-16T08:53:45.426Z,102309.88
2023-02-16T08:56:12.270Z,102314.06
2023-02-16T08:58:38.733Z,102310.38
2023-02-16T09:01:08.111Z,102312.91
2023-02-16T09:03:37.218Z,102310.88
2023-02-16T09:06:05.593Z,102315.06
2023-02-16T09:08:32.925Z,102318.47
2023-02-16T09:11:03.793Z,102325.34
2023-02-16T09:13:30.566Z,102310.22
2023-02-16T09:16:04.262Z,102306.69
2023-02-16T09:18:32.944Z,102314.59
2023-02-16T09:21:05.117Z,102317.63
2023-02-16T09:23:31.561Z,102317.63
2023-02-16T09:25:59.619Z,102322.31
2023-02-16T09:28:26.016Z,102317.09
2023-02-16T09:30:54.274Z,102318.94
2023-02-16T09:33:21.713Z,102320.28
2023-02-16T09:35:48.151Z,102321.97
2023-02-16T09:38:16.744Z,102305.84
2023-02-16T09:40:44.774Z,102299.28
2023-02-16T09:43:29.176Z,102299.94
2023-02-16T09:45:58.760Z,102290.72
2023-02-16T09:48:35.914Z,102296.13
2023-02-16T09:51:04.251Z,102313.25
2023-02-16T09:53:40.774Z,102317.63
2023-02-16T09:56:22.562Z,102311.91
2023-02-16T09:58:56.161Z,102310.72
2023-02-16T10:01:39.875Z,102316.78
2023-02-16T10:04:21.568Z,102324.34
2023-02-16T10:07:00.114Z,102323.84
2023-02-16T10:09:29.617Z,102315.06
2023-02-16T10:12:13.195Z,102318.78
2023-02-16T10:14:45.649Z,102321.63
2023-02-16T10:17:33.892Z,102327.00
2023-02-16T10:20:23.664Z,102330.72
2023-02-16T10:23:00.918Z,102323.66
2023-02-16T10:25:37.220Z,102314.91
2023-02-16T10:28:35.782Z,102316.59
2023-02-16T10:31:12.476Z,102319.63
2023-02-16T10:33:45.002Z,102311.06
2023-02-16T10:36:38.453Z,102321.31
2023-02-16T10:39:24.150Z,102318.97
2023-02-16T10:42:27.097Z,102315.78
2023-02-16T10:45:28.296Z,102321.31
2023-02-16T10:47:54.797Z,102317.09
2023-02-16T10:50:39.883Z,102316.94
2023-02-16T10:53:15.730Z,102323.31
2023-02-16T10:55:42.312Z,102316.78
2023-02-16T10:58:26.952Z,102317.09
2023-02-16T11:01:19.248Z,102314.91
2023-02-16T11:03:49.227Z,102315.56
2023-02-16T11:06:19.664Z,102315.75
2023-02-16T11:08:50.946Z,102301.94
2023-02-16T11:11:19.731Z,102296.19
2023-02-16T11:13:50.193Z,102298.38
2023-02-16T11:16:23.540Z,102302.72
2023-02-16T11:19:03.193Z,102300.34
2023-02-16T11:22:06.395Z,102291.25
2023-02-16T11:24:37.931Z,102281.84
2023-02-16T11:27:13.650Z,102272.75
2023-02-16T11:29:40.884Z,102277.41
2023-02-16T11:32:09.441Z,102276.41
2023-02-16T11:34:42.453Z,102269.66
2023-02-16T11:37:34.954Z,102264.22
2023-02-16T11:40:20.415Z,102262.50
2023-02-16T11:42:49.609Z,102267.03
2023-02-16T11:45:34.582Z,102269.19
2023-02-16T11:48:04.625Z,102262.41
2023-02-16T11:50:39.694Z,102264.41
2023-02-16T11:53:27.377Z,102255.25
2023-02-16T11:56:12.815Z,102256.91
2023-02-16T11:58:40.466Z,102260.97
2023-02-16T12:01:24.727Z,102262.19
2023-02-16T12:04:08.308Z,102253.41
2023-02-16T12:06:57.973Z,102246.25
2023-02-16T12:09:45.728Z,102243.88
2023-02-16T12:12:31.411Z,102243.63
2023-02-16T12:15:21.106Z,102240.78
2023-02-16T12:18:04.878Z,102237.63
2023-02-16T12:20:36.440Z,102232.72
2023-02-16T12:23:39.379Z,102223.06
2023-02-16T12:26:24.655Z,102216.63
2023-02-16T12:29:08.861Z,102202.66
2023-02-16T12:32:07.293Z,102201.75
2023-02-16T12:35:00.664Z,102185.38
2023-02-16T12:37:27.132Z,102186.44
2023-02-16T12:40:11.872Z,102178.94
2023-02-16T12:43:15.258Z,102175.94
2023-02-16T12:45:44.633Z,102180.53
2023-02-16T12:48:10.997Z,102176.28
2023-02-16T12:50:41.881Z,102172.88
2023-02-16T12:53:20.032Z,102167.84
2023-02-16T12:55:51.102Z,102157.03
2023-02-16T12:58:23.665Z,102155.28
2023-02-16T13:01:01.407Z,102155.66
2023-02-16T13:03:46.550Z,102145.66
2023-02-16T13:06:45.471Z,102145.88
2023-02-16T13:09:43.989Z,102154.06
2023-02-16T13:12:25.970Z,102157.28
2023-02-16T13:15:10.484Z,102161.03
2023-02-16T13:17:41.673Z,102156.31
2023-02-16T13:20:17.721Z,102146.22
2023-02-16T13:22:53.680Z,102150.97
2023-02-16T13:25:41.887Z,102139.22
2023-02-16T13:28:31.287Z,102145.63
2023-02-16T13:31:12.838Z,102137.16
2023-02-16T13:34:10.656Z,102138.47
2023-02-16T13:36:54.171Z,102129.72
2023-02-16T13:39:29.580Z,102123.22
2023-02-16T13:42:08.560Z,102107.44
2023-02-16T13:44:42.760Z,102107.31
2023-02-16T13:47:17.894Z,102097.38
2023-02-16T13:49:46.380Z,102112.31
2023-02-16T13:52:41.913Z,102107.38
2023-02-16T13:55:30.011Z,102079.78
2023-02-16T13:58:02.167Z,102075.50
2023-02-16T14:00:44.966Z,102083.81
2023-02-16T14:03:17.511Z,102078.22
2023-02-16T14:05:46.766Z,102084.06
2023-02-16T14:08:19.370Z,102084.19
2023-02-16T14:10:58.749Z,102080.72
2023-02-16T14:13:33.206Z,102081.34
2023-02-16T14:16:10.510Z,102077.59
2023-02-16T14:18:47.935Z,102073.88
2023-02-16T14:21:35.315Z,102071.56
2023-02-16T14:24:03.873Z,102065.94
2023-02-16T14:26:31.974Z,102065.31
2023-02-16T14:29:18.247Z,102058.03
2023-02-16T14:31:53.823Z,102059.69
2023-02-16T14:34:29.191Z,102050.94
2023-02-16T14:37:14.459Z,102051.81
2023-02-16T14:40:04.031Z,102045.34
2023-02-16T14:42:33.004Z,102046.00
2023-02-16T14:45:14.439Z,102048.13
2023-02-16T14:47:46.984Z,102043.06
2023-02-16T14:50:22.796Z,102032.66
2023-02-16T14:53:17.127Z,102045.34
2023-02-16T14:56:09.026Z,102041.19
2023-02-16T14:58:44.469Z,102040.56
2023-02-16T15:01:13.686Z,102038.69
2023-02-16T15:03:48.231Z,102039.47
2023-02-16T15:06:19.646Z,102037.16
2023-02-16T15:08:56.927Z,102048.34
2023-02-16T15:12:00.831Z,102054.81
2023-02-16T15:14:28.688Z,102054.81
2023-02-16T15:16:57.675Z,102055.19
2023-02-16T15:19:30.848Z,102058.31
2023-02-16T15:22:10.997Z,102053.28
2023-02-16T15:24:37.456Z,102057.41
2023-02-16T15:27:04.202Z,102056.78
2023-02-16T15:29:31.263Z,102053.19
2023-02-16T15:31:59.504Z,102051.47
2023-02-16T15:34:33.231Z,102053.50
2023-02-16T15:37:02.250Z,102063.81
2023-02-16T15:39:46.444Z,102064.59
2023-02-16T15:42:14.933Z,102058.28
2023-02-16T15:44:43.544Z,102056.16
2023-02-16T15:47:13.099Z,102060.28
2023-02-16T15:49:40.019Z,102052.34
2023-02-16T15:52:19.393Z,102061.88
2023-02-16T15:54:47.106Z,102061.63
2023-02-16T15:57:26.548Z,102054.94
2023-02-16T16:00:04.039Z,102058.84
2023-02-16T16:02:41.467Z,102052.56
2023-02-16T16:05:20.730Z,102050.44
2023-02-16T16:07:47.766Z,102047.00
2023-02-16T16:10:29.517Z,102046.94
2023-02-16T16:13:00.820Z,102056.44
2023-02-16T16:15:30.284Z,102046.22
2023-02-16T16:17:59.737Z,102043.25
2023-02-16T16:20:31.515Z,102037.41
2023-02-16T16:23:04.537Z,102031.72
2023-02-16T16:25:34.044Z,102037.69
2023-02-16T16:28:05.639Z,102029.16
2023-02-16T16:30:35.238Z,102025.81
2023-02-16T16:33:12.779Z,102035.28
2023-02-16T16:35:50.397Z,102025.72
2023-02-16T16:38:27.560Z,102036.06
2023-02-16T16:40:57.287Z,102023.97
2023-02-16T16:43:28.929Z,102020.63
2023-02-16T16:46:28.811Z,102015.59
2023-02-16T16:49:00.772Z,102013.91
2023-02-16T16:51:31.397Z,102011.41
2023-02-16T16:54:03.993Z,102012.63
2023-02-16T16:56:36.017Z,102001.81
2023-02-16T16:59:03.302Z,102001.00
2023-02-16T17:01:30.358Z,102005.75
2023-02-16T17:03:57.392Z,101995.97
2023-02-16T17:06:25.434Z,101988.72
2023-02-16T17:08:51.978Z,101983.31
2023-02-16T17:11:28.481Z,101988.53
2023-02-16T17:13:56.026Z,101990.19
2023-02-16T17:16:26.899Z,101994.38
2023-02-16T17:18:53.328Z,101990.66
2023-02-16T17:21:20.123Z,101985.91
2023-02-16T17:23:52.871Z,101979.50
2023-02-16T17:26:20.479Z,101979.13
2023-02-16T17:28:47.041Z,101983.47
2023-02-16T17:31:13.540Z,101981.44
2023-02-16T17:33:40.066Z,101967.94
2023-02-16T17:36:08.071Z,101961.50
2023-02-16T17:38:34.721Z,101962.16
2023-02-16T17:41:01.177Z,101968.38
2023-02-16T17:43:28.159Z,101963.81
2023-02-16T17:45:56.783Z,101960.91
2023-02-16T17:48:30.177Z,101962.59
2023-02-16T17:50:57.992Z,101970.50
2023-02-16T17:53:25.933Z,101974.88
2023-02-16T17:55:55.524Z,101972.16
2023-02-16T17:58:23.216Z,101977.56
2023-02-16T18:00:50.007Z,101973.03
2023-02-16T18:03:17.881Z,101980.28
2023-02-16T18:05:44.681Z,101982.97
2023-02-16T18:08:12.522Z,101984.66
2023-02-16T18:10:45.025Z,101982.13
2023-02-16T18:13:12.707Z,101975.91
2023-02-16T18:15:41.496Z,101978.59
2023-02-16T18:18:08.333Z,101967.16
2023-02-16T18:20:35.185Z,101977.75
2023-02-16T18:23:01.734Z,101963.44
2023-02-16T18:25:28.501Z,101969.66
2023-02-16T18:27:54.964Z,101975.91
2023-02-16T18:30:21.971Z,101965.28
2023-02-16T18:32:48.621Z,101968.81
2023-02-16T18:35:15.529Z,101968.19
2023-02-16T18:37:42.479Z,101965.94
2023-02-16T18:40:11.648Z,101957.00
2023-02-16T18:42:38.266Z,101959.69
2023-02-16T18:45:05.732Z,101964.94
2023-02-16T18:47:32.319Z,101953.94
2023-02-16T18:49:58.932Z,101956.66
2023-02-16T18:52:25.545Z,101969.13
2023-02-16T18:54:52.448Z,101966.41
2023-02-16T18:57:19.140Z,101969.13
2023-02-16T18:59:45.561Z,101962.88
2023-02-16T19:02:12.582Z,101968.91
2023-02-16T19:04:39.073Z,101970.59
2023-02-16T19:07:05.724Z,101970.59
2023-02-16T19:09:32.194Z,101967.06
2023-02-16T19:11:58.681Z,101980.38
2023-02-16T19:14:25.138Z,101978.50
2023-02-16T19:16:51.606Z,101972.25
2023-02-16T19:19:18.128Z,101980.16
2023-02-16T22:39:00.380Z,101914.34
2023-02-16T22:56:12.403Z,101921.00
2023-02-16T22:58:38.954Z,101919.97
2023-02-16T23:01:13.879Z,101919.13
2023-02-16T23:03:41.241Z,101918.28
2023-02-16T23:06:15.712Z,101903.75
2023-02-16T23:08:44.093Z,101911.22
2023-02-16T23:11:10.919Z,101903.13
2023-02-16T23:13:37.625Z,101912.88
2023-02-16T23:16:11.037Z,101914.56
2023-02-16T23:18:37.863Z,101918.28
2023-02-16T23:21:08.466Z,101903.75
2023-02-16T23:23:35.443Z,101905.41
2023-02-16T23:26:01.984Z,101908.31
2023-02-16T23:28:28.354Z,101903.75
2023-02-16T23:30:56.615Z,101896.28
2023-02-16T23:33:23.494Z,101896.28
2023-02-16T23:35:50.096Z,101901.69
2023-02-16T23:38:17.878Z,101903.34
2023-02-16T23:40:44.301Z,101901.69
2023-02-16T23:43:10.871Z,101900.44
2023-02-16T23:45:37.634Z,101903.16
2023-02-16T23:48:04.255Z,101903.34
2023-02-16T23:50:30.710Z,101896.91
2023-02-16T23:52:57.164Z,101894.22
2023-02-16T23:55:23.601Z,101902.94
2023-02-16T23:57:50.028Z,101892.13
